sensor_id;sensor_type;location;lat;lon;timestamp;temperature;humidity
21807;DHT22;11065;50.786;7.840;2024-01-15T00:00:09;4.10;55.70
21807;DHT22;11065;50.786;7.840;2024-01-15T00:02:37;4.10;55.60
21807;DHT22;11065;50.786;7.840;2024-01-15T00:05:05;4.10;55.90
21807;DHT22;11065;50.786;7.840;2024-01-15T00:07:33;4.20;55.70
21807;DHT22;11065;50.786;7.840;2024-01-15T00:10:01;4.20;55.60
21807;DHT22;11065;50.786;7.840;2024-01-15T00:12:29;4.20;55.60
21807;DHT22;11065;50.786;7.840;2024-01-15T00:14:57;4.20;55.60
21807;DHT22;11065;50.786;7.840;2024-01-15T00:17:26;4.30;55.50
21807;DHT22;11065;50.786;7.840;2024-01-15T00:19:54;4.30;55.50
21807;DHT22;11065;50.786;7.840;2024-01-15T00:22:24;4.30;55.40
21807;DHT22;11065;50.786;7.840;2024-01-15T00:24:54;4.30;55.50
21807;DHT22;11065;50.786;7.840;2024-01-15T00:27:22;4.40;55.50
21807;DHT22;11065;50.786;7.840;2024-01-15T00:29:51;4.40;55.40
21807;DHT22;11065;50.786;7.840;2024-01-15T00:32:20;4.40;55.50
21807;DHT22;11065;50.786;7.840;2024-01-15T00:34:50;4.40;55.50
21807;DHT22;11065;50.786;7.840;2024-01-15T00:37:18;4.40;55.40
21807;DHT22;11065;50.786;7.840;2024-01-15T00:39:46;4.50;55.40
21807;DHT22;11065;50.786;7.840;2024-01-15T00:42:14;4.50;55.40
21807;DHT22;11065;50.786;7.840;2024-01-15T00:44:42;4.50;55.40
21807;DHT22;11065;50.786;7.840;2024-01-15T00:47:10;4.50;55.40
21807;DHT22;11065;50.786;7.840;2024-01-15T00:49:38;4.50;55.50
21807;DHT22;11065;50.786;7.840;2024-01-15T00:52:08;4.50;55.40
21807;DHT22;11065;50.786;7.840;2024-01-15T00:54:35;4.60;55.40
21807;DHT22;11065;50.786;7.840;2024-01-15T00:57:04;4.60;55.50
21807;DHT22;11065;50.786;7.840;2024-01-15T00:59:32;4.60;55.40
21807;DHT22;11065;50.786;7.840;2024-01-15T01:02:00;4.60;55.40
21807;DHT22;11065;50.786;7.840;2024-01-15T01:04:29;4.60;55.40
21807;DHT22;11065;50.786;7.840;2024-01-15T01:06:57;4.60;55.40
21807;DHT22;11065;50.786;7.840;2024-01-15T01:09:26;4.60;55.40
21807;DHT22;11065;50.786;7.840;2024-01-15T01:11:56;4.70;55.50
21807;DHT22;11065;50.786;7.840;2024-01-15T01:14:24;4.70;55.40
21807;DHT22;11065;50.786;7.840;2024-01-15T01:16:52;4.70;55.50
21807;DHT22;11065;50.786;7.840;2024-01-15T01:19:20;4.70;55.60
21807;DHT22;11065;50.786;7.840;2024-01-15T01:21:48;4.70;55.50
21807;DHT22;11065;50.786;7.840;2024-01-15T01:24:17;4.70;55.40
21807;DHT22;11065;50.786;7.840;2024-01-15T01:26:46;4.70;55.40
21807;DHT22;11065;50.786;7.840;2024-01-15T01:29:14;4.70;55.40
21807;DHT22;11065;50.786;7.840;2024-01-15T01:31:43;4.70;55.50
21807;DHT22;11065;50.786;7.840;2024-01-15T01:34:14;4.70;55.50
21807;DHT22;11065;50.786;7.840;2024-01-15T01:36:42;4.70;55.60
21807;DHT22;11065;50.786;7.840;2024-01-15T01:39:11;4.70;55.70
21807;DHT22;11065;50.786;7.840;2024-01-15T01:41:39;4.70;55.70
21807;DHT22;11065;50.786;7.840;2024-01-15T01:44:09;4.70;55.70
21807;DHT22;11065;50.786;7.840;2024-01-15T01:46:37;4.70;55.60
21807;DHT22;11065;50.786;7.840;2024-01-15T01:49:08;4.70;55.60
21807;DHT22;11065;50.786;7.840;2024-01-15T01:51:38;4.70;55.70
21807;DHT22;11065;50.786;7.840;2024-01-15T01:54:07;4.70;55.60
21807;DHT22;11065;50.786;7.840;2024-01-15T01:56:38;4.70;55.60
21807;DHT22;11065;50.786;7.840;2024-01-15T01:59:09;4.70;55.50
21807;DHT22;11065;50.786;7.840;2024-01-15T02:01:38;4.70;55.60
21807;DHT22;11065;50.786;7.840;2024-01-15T02:04:06;4.70;55.50
21807;DHT22;11065;50.786;7.840;2024-01-15T02:06:35;4.70;55.50
21807;DHT22;11065;50.786;7.840;2024-01-15T02:09:03;4.70;55.50
21807;DHT22;11065;50.786;7.840;2024-01-15T02:11:31;4.70;55.60
21807;DHT22;11065;50.786;7.840;2024-01-15T02:13:59;4.70;55.60
21807;DHT22;11065;50.786;7.840;2024-01-15T02:16:29;4.70;55.60
21807;DHT22;11065;50.786;7.840;2024-01-15T02:18:57;4.70;55.60
21807;DHT22;11065;50.786;7.840;2024-01-15T02:21:25;4.70;55.60
21807;DHT22;11065;50.786;7.840;2024-01-15T02:23:56;4.70;55.60
21807;DHT22;11065;50.786;7.840;2024-01-15T02:26:25;4.70;55.60
21807;DHT22;11065;50.786;7.840;2024-01-15T02:28:52;4.70;55.60
21807;DHT22;11065;50.786;7.840;2024-01-15T02:31:21;4.80;55.70
21807;DHT22;11065;50.786;7.840;2024-01-15T02:33:49;4.80;55.60
21807;DHT22;11065;50.786;7.840;2024-01-15T02:36:17;4.80;55.60
21807;DHT22;11065;50.786;7.840;2024-01-15T02:38:45;4.80;55.60
21807;DHT22;11065;50.786;7.840;2024-01-15T02:41:14;4.80;55.60
21807;DHT22;11065;50.786;7.840;2024-01-15T02:43:42;4.80;55.60
21807;DHT22;11065;50.786;7.840;2024-01-15T02:46:10;4.80;55.60
21807;DHT22;11065;50.786;7.840;2024-01-15T02:48:38;4.80;55.60
21807;DHT22;11065;50.786;7.840;2024-01-15T02:51:06;4.80;55.50
21807;DHT22;11065;50.786;7.840;2024-01-15T02:53:35;4.80;55.70
21807;DHT22;11065;50.786;7.840;2024-01-15T02:56:03;4.80;55.80
21807;DHT22;11065;50.786;7.840;2024-01-15T02:58:32;4.80;55.70
21807;DHT22;11065;50.786;7.840;2024-01-15T03:01:00;4.80;55.60
21807;DHT22;11065;50.786;7.840;2024-01-15T03:03:29;4.80;55.60
21807;DHT22;11065;50.786;7.840;2024-01-15T03:05:57;4.80;55.60
21807;DHT22;11065;50.786;7.840;2024-01-15T03:08:26;4.80;55.60
21807;DHT22;11065;50.786;7.840;2024-01-15T03:10:55;4.80;55.60
21807;DHT22;11065;50.786;7.840;2024-01-15T03:13:23;4.80;55.60
21807;DHT22;11065;50.786;7.840;2024-01-15T03:15:52;4.80;55.60
21807;DHT22;11065;50.786;7.840;2024-01-15T03:18:20;4.80;55.60
21807;DHT22;11065;50.786;7.840;2024-01-15T03:20:48;4.80;55.70
21807;DHT22;11065;50.786;7.840;2024-01-15T03:23:16;4.80;56.10
21807;DHT22;11065;50.786;7.840;2024-01-15T03:25:44;4.80;55.60
21807;DHT22;11065;50.786;7.840;2024-01-15T03:28:12;4.80;55.70
21807;DHT22;11065;50.786;7.840;2024-01-15T03:30:40;4.80;55.70
21807;DHT22;11065;50.786;7.840;2024-01-15T03:33:09;4.80;55.80
21807;DHT22;11065;50.786;7.840;2024-01-15T03:35:37;4.80;55.70
21807;DHT22;11065;50.786;7.840;2024-01-15T03:38:05;4.80;55.70
21807;DHT22;11065;50.786;7.840;2024-01-15T03:40:33;4.80;55.70
21807;DHT22;11065;50.786;7.840;2024-01-15T03:43:01;4.80;55.70
21807;DHT22;11065;50.786;7.840;2024-01-15T03:45:29;4.80;55.70
21807;DHT22;11065;50.786;7.840;2024-01-15T03:47:57;4.80;55.70
21807;DHT22;11065;50.786;7.840;2024-01-15T03:50:27;4.80;55.70
21807;DHT22;11065;50.786;7.840;2024-01-15T03:52:55;4.80;55.70
21807;DHT22;11065;50.786;7.840;2024-01-15T03:55:23;4.80;55.70
21807;DHT22;11065;50.786;7.840;2024-01-15T03:57:51;4.80;55.70
21807;DHT22;11065;50.786;7.840;2024-01-15T04:00:20;4.80;55.70
21807;DHT22;11065;50.786;7.840;2024-01-15T04:02:48;4.80;55.70
21807;DHT22;11065;50.786;7.840;2024-01-15T04:05:16;4.80;56.20
21807;DHT22;11065;50.786;7.840;2024-01-15T04:07:45;4.80;55.70
21807;DHT22;11065;50.786;7.840;2024-01-15T04:10:13;4.80;55.60
21807;DHT22;11065;50.786;7.840;2024-01-15T04:12:41;4.90;55.60
21807;DHT22;11065;50.786;7.840;2024-01-15T04:15:09;4.80;55.70
21807;DHT22;11065;50.786;7.840;2024-01-15T04:17:37;4.80;55.70
21807;DHT22;11065;50.786;7.840;2024-01-15T04:20:06;4.80;55.70
21807;DHT22;11065;50.786;7.840;2024-01-15T04:22:34;4.80;55.70
21807;DHT22;11065;50.786;7.840;2024-01-15T04:25:05;4.80;55.80
21807;DHT22;11065;50.786;7.840;2024-01-15T04:27:33;4.80;55.80
21807;DHT22;11065;50.786;7.840;2024-01-15T04:30:01;4.80;55.70
21807;DHT22;11065;50.786;7.840;2024-01-15T04:32:29;4.80;55.70
21807;DHT22;11065;50.786;7.840;2024-01-15T04:34:57;4.80;55.80
21807;DHT22;11065;50.786;7.840;2024-01-15T04:37:25;4.80;55.80
21807;DHT22;11065;50.786;7.840;2024-01-15T04:39:53;4.80;55.70
21807;DHT22;11065;50.786;7.840;2024-01-15T04:42:23;4.80;55.80
21807;DHT22;11065;50.786;7.840;2024-01-15T04:44:51;4.80;55.70
21807;DHT22;11065;50.786;7.840;2024-01-15T04:47:19;4.80;55.70
21807;DHT22;11065;50.786;7.840;2024-01-15T04:49:47;4.80;55.70
21807;DHT22;11065;50.786;7.840;2024-01-15T04:52:16;4.80;55.70
21807;DHT22;11065;50.786;7.840;2024-01-15T04:54:44;4.80;55.60
21807;DHT22;11065;50.786;7.840;2024-01-15T04:57:12;4.80;55.60
21807;DHT22;11065;50.786;7.840;2024-01-15T04:59:41;4.80;55.60
21807;DHT22;11065;50.786;7.840;2024-01-15T05:02:09;4.80;55.60
21807;DHT22;11065;50.786;7.840;2024-01-15T05:04:37;4.80;55.60
21807;DHT22;11065;50.786;7.840;2024-01-15T05:07:05;4.80;55.70
21807;DHT22;11065;50.786;7.840;2024-01-15T05:09:33;4.80;55.60
21807;DHT22;11065;50.786;7.840;2024-01-15T05:12:01;4.80;55.60
21807;DHT22;11065;50.786;7.840;2024-01-15T05:14:29;4.80;55.60
21807;DHT22;11065;50.786;7.840;2024-01-15T05:16:59;4.80;55.60
21807;DHT22;11065;50.786;7.840;2024-01-15T05:19:26;4.80;55.60
21807;DHT22;11065;50.786;7.840;2024-01-15T05:21:55;4.80;55.60
21807;DHT22;11065;50.786;7.840;2024-01-15T05:24:23;4.80;55.60
21807;DHT22;11065;50.786;7.840;2024-01-15T05:26:53;4.80;55.70
21807;DHT22;11065;50.786;7.840;2024-01-15T05:29:20;4.80;55.70
21807;DHT22;11065;50.786;7.840;2024-01-15T05:31:48;4.80;55.70
21807;DHT22;11065;50.786;7.840;2024-01-15T05:34:18;4.80;55.70
21807;DHT22;11065;50.786;7.840;2024-01-15T05:36:46;4.80;55.70
21807;DHT22;11065;50.786;7.840;2024-01-15T05:39:15;4.80;55.60
21807;DHT22;11065;50.786;7.840;2024-01-15T05:41:42;4.80;55.60
21807;DHT22;11065;50.786;7.840;2024-01-15T05:44:10;4.80;55.60
21807;DHT22;11065;50.786;7.840;2024-01-15T05:46:38;4.80;55.60
21807;DHT22;11065;50.786;7.840;2024-01-15T05:49:06;4.80;55.60
21807;DHT22;11065;50.786;7.840;2024-01-15T05:51:36;4.80;55.60
21807;DHT22;11065;50.786;7.840;2024-01-15T05:54:04;4.80;55.70
21807;DHT22;11065;50.786;7.840;2024-01-15T05:56:32;4.80;55.70
21807;DHT22;11065;50.786;7.840;2024-01-15T05:59:00;4.80;55.70
21807;DHT22;11065;50.786;7.840;2024-01-15T06:01:28;4.80;55.70
21807;DHT22;11065;50.786;7.840;2024-01-15T06:03:56;4.90;55.80
21807;DHT22;11065;50.786;7.840;2024-01-15T06:06:24;4.90;55.80
21807;DHT22;11065;50.786;7.840;2024-01-15T06:08:54;4.90;55.80
21807;DHT22;11065;50.786;7.840;2024-01-15T06:11:21;4.90;55.80
21807;DHT22;11065;50.786;7.840;2024-01-15T06:13:49;4.90;55.70
21807;DHT22;11065;50.786;7.840;2024-01-15T06:16:17;4.90;55.70
21807;DHT22;11065;50.786;7.840;2024-01-15T06:18:46;4.90;55.70
21807;DHT22;11065;50.786;7.840;2024-01-15T06:21:15;4.90;55.60
21807;DHT22;11065;50.786;7.840;2024-01-15T06:23:43;4.90;55.60
21807;DHT22;11065;50.786;7.840;2024-01-15T06:26:13;4.90;55.70
21807;DHT22;11065;50.786;7.840;2024-01-15T06:28:40;4.90;55.70
21807;DHT22;11065;50.786;7.840;2024-01-15T06:31:08;4.90;55.70
21807;DHT22;11065;50.786;7.840;2024-01-15T06:33:37;4.90;55.70
21807;DHT22;11065;50.786;7.840;2024-01-15T06:36:06;4.90;55.70
21807;DHT22;11065;50.786;7.840;2024-01-15T06:38:34;4.90;55.70
21807;DHT22;11065;50.786;7.840;2024-01-15T06:41:03;4.90;55.70
21807;DHT22;11065;50.786;7.840;2024-01-15T06:43:32;4.90;55.70
21807;DHT22;11065;50.786;7.840;2024-01-15T06:46:00;4.90;55.70
21807;DHT22;11065;50.786;7.840;2024-01-15T06:48:33;4.90;55.70
21807;DHT22;11065;50.786;7.840;2024-01-15T06:51:01;4.90;55.70
21807;DHT22;11065;50.786;7.840;2024-01-15T06:53:29;4.90;55.70
21807;DHT22;11065;50.786;7.840;2024-01-15T06:55:57;4.90;55.70
21807;DHT22;11065;50.786;7.840;2024-01-15T06:58:26;4.90;55.70
21807;DHT22;11065;50.786;7.840;2024-01-15T07:00:56;5.00;55.80
21807;DHT22;11065;50.786;7.840;2024-01-15T07:03:25;5.00;55.80
21807;DHT22;11065;50.786;7.840;2024-01-15T07:05:53;5.00;55.80
21807;DHT22;11065;50.786;7.840;2024-01-15T07:08:23;5.00;55.80
21807;DHT22;11065;50.786;7.840;2024-01-15T07:10:51;5.00;55.70
21807;DHT22;11065;50.786;7.840;2024-01-15T07:13:18;5.00;55.80
21807;DHT22;11065;50.786;7.840;2024-01-15T07:15:46;5.00;55.80
21807;DHT22;11065;50.786;7.840;2024-01-15T07:18:16;5.10;56.10
21807;DHT22;11065;50.786;7.840;2024-01-15T07:20:45;5.00;56.10
21807;DHT22;11065;50.786;7.840;2024-01-15T07:23:13;5.00;56.00
21807;DHT22;11065;50.786;7.840;2024-01-15T07:25:41;4.90;55.90
21807;DHT22;11065;50.786;7.840;2024-01-15T07:28:09;4.90;55.90
21807;DHT22;11065;50.786;7.840;2024-01-15T07:30:37;4.90;56.00
21807;DHT22;11065;50.786;7.840;2024-01-15T07:33:06;4.90;56.10
21807;DHT22;11065;50.786;7.840;2024-01-15T07:35:35;5.00;56.10
21807;DHT22;11065;50.786;7.840;2024-01-15T07:38:03;5.00;56.10
21807;DHT22;11065;50.786;7.840;2024-01-15T07:40:31;5.00;56.10
21807;DHT22;11065;50.786;7.840;2024-01-15T07:42:59;5.00;56.00
21807;DHT22;11065;50.786;7.840;2024-01-15T07:45:27;5.00;56.00
21807;DHT22;11065;50.786;7.840;2024-01-15T07:47:55;5.00;56.00
21807;DHT22;11065;50.786;7.840;2024-01-15T07:50:23;5.00;56.10
21807;DHT22;11065;50.786;7.840;2024-01-15T07:52:53;5.10;56.10
21807;DHT22;11065;50.786;7.840;2024-01-15T07:55:20;5.10;56.10
21807;DHT22;11065;50.786;7.840;2024-01-15T07:57:48;5.10;56.10
21807;DHT22;11065;50.786;7.840;2024-01-15T08:00:28;5.10;56.20
21807;DHT22;11065;50.786;7.840;2024-01-15T08:02:56;5.10;56.10
21807;DHT22;11065;50.786;7.840;2024-01-15T08:05:24;5.10;56.10
21807;DHT22;11065;50.786;7.840;2024-01-15T08:07:54;5.10;56.10
21807;DHT22;11065;50.786;7.840;2024-01-15T08:10:25;5.10;56.20
21807;DHT22;11065;50.786;7.840;2024-01-15T08:12:52;5.10;56.20
21807;DHT22;11065;50.786;7.840;2024-01-15T08:15:20;5.10;56.20
21807;DHT22;11065;50.786;7.840;2024-01-15T08:17:48;5.10;56.20
21807;DHT22;11065;50.786;7.840;2024-01-15T08:20:17;5.10;56.20
21807;DHT22;11065;50.786;7.840;2024-01-15T08:22:45;5.10;56.20
21807;DHT22;11065;50.786;7.840;2024-01-15T08:25:16;5.10;56.20
21807;DHT22;11065;50.786;7.840;2024-01-15T08:27:44;5.10;56.20
21807;DHT22;11065;50.786;7.840;2024-01-15T08:30:13;5.20;56.20
21807;DHT22;11065;50.786;7.840;2024-01-15T08:32:41;5.20;56.10
21807;DHT22;11065;50.786;7.840;2024-01-15T08:35:10;5.20;56.10
21807;DHT22;11065;50.786;7.840;2024-01-15T08:37:38;5.20;56.10
21807;DHT22;11065;50.786;7.840;2024-01-15T08:40:07;5.10;56.10
21807;DHT22;11065;50.786;7.840;2024-01-15T08:42:36;5.20;56.10
21807;DHT22;11065;50.786;7.840;2024-01-15T08:45:05;5.20;56.10
21807;DHT22;11065;50.786;7.840;2024-01-15T08:47:33;5.20;56.60
21807;DHT22;11065;50.786;7.840;2024-01-15T08:50:01;5.20;56.10
21807;DHT22;11065;50.786;7.840;2024-01-15T08:52:28;5.20;56.10
21807;DHT22;11065;50.786;7.840;2024-01-15T08:54:56;5.20;56.10
21807;DHT22;11065;50.786;7.840;2024-01-15T08:57:24;5.20;56.10
21807;DHT22;11065;50.786;7.840;2024-01-15T08:59:54;5.20;56.10
21807;DHT22;11065;50.786;7.840;2024-01-15T09:02:22;5.20;56.10
21807;DHT22;11065;50.786;7.840;2024-01-15T09:04:50;5.20;56.10
21807;DHT22;11065;50.786;7.840;2024-01-15T09:07:18;5.20;56.10
21807;DHT22;11065;50.786;7.840;2024-01-15T09:09:46;5.30;56.10
21807;DHT22;11065;50.786;7.840;2024-01-15T09:12:14;5.30;56.10
21807;DHT22;11065;50.786;7.840;2024-01-15T09:14:43;5.30;56.10
21807;DHT22;11065;50.786;7.840;2024-01-15T09:17:13;5.30;56.10
21807;DHT22;11065;50.786;7.840;2024-01-15T09:19:41;5.30;56.00
21807;DHT22;11065;50.786;7.840;2024-01-15T09:22:09;5.30;56.00
21807;DHT22;11065;50.786;7.840;2024-01-15T09:24:37;5.30;56.00
21807;DHT22;11065;50.786;7.840;2024-01-15T09:27:07;5.30;55.90
21807;DHT22;11065;50.786;7.840;2024-01-15T09:29:35;5.30;56.00
21807;DHT22;11065;50.786;7.840;2024-01-15T09:32:06;5.20;55.90
21807;DHT22;11065;50.786;7.840;2024-01-15T09:34:36;5.20;56.00
21807;DHT22;11065;50.786;7.840;2024-01-15T09:37:04;5.20;56.40
21807;DHT22;11065;50.786;7.840;2024-01-15T09:39:32;5.20;56.00
21807;DHT22;11065;50.786;7.840;2024-01-15T09:42:01;5.20;56.30
21807;DHT22;11065;50.786;7.840;2024-01-15T09:44:29;5.20;56.10
21807;DHT22;11065;50.786;7.840;2024-01-15T09:46:58;5.20;56.10
21807;DHT22;11065;50.786;7.840;2024-01-15T09:49:27;5.20;56.10
21807;DHT22;11065;50.786;7.840;2024-01-15T09:51:58;5.30;56.10
21807;DHT22;11065;50.786;7.840;2024-01-15T09:54:37;5.20;55.90
21807;DHT22;11065;50.786;7.840;2024-01-15T09:57:06;5.20;55.80
21807;DHT22;11065;50.786;7.840;2024-01-15T09:59:36;5.20;55.80
21807;DHT22;11065;50.786;7.840;2024-01-15T10:02:06;5.20;55.90
21807;DHT22;11065;50.786;7.840;2024-01-15T10:04:35;5.20;55.90
21807;DHT22;11065;50.786;7.840;2024-01-15T10:07:05;5.20;55.90
21807;DHT22;11065;50.786;7.840;2024-01-15T10:09:34;5.20;56.00
21807;DHT22;11065;50.786;7.840;2024-01-15T10:12:02;5.10;55.90
21807;DHT22;11065;50.786;7.840;2024-01-15T10:14:30;5.10;55.90
21807;DHT22;11065;50.786;7.840;2024-01-15T10:16:59;5.10;55.90
21807;DHT22;11065;50.786;7.840;2024-01-15T10:19:27;5.10;55.90
21807;DHT22;11065;50.786;7.840;2024-01-15T10:21:56;5.10;55.90
21807;DHT22;11065;50.786;7.840;2024-01-15T10:24:25;5.10;56.00
21807;DHT22;11065;50.786;7.840;2024-01-15T10:27:05;5.10;56.00
21807;DHT22;11065;50.786;7.840;2024-01-15T10:29:33;5.00;55.90
21807;DHT22;11065;50.786;7.840;2024-01-15T10:32:01;5.00;56.10
21807;DHT22;11065;50.786;7.840;2024-01-15T10:34:30;5.00;56.00
21807;DHT22;11065;50.786;7.840;2024-01-15T10:36:58;5.00;56.00
21807;DHT22;11065;50.786;7.840;2024-01-15T10:39:28;5.00;56.20
21807;DHT22;11065;50.786;7.840;2024-01-15T10:41:57;5.00;56.20
21807;DHT22;11065;50.786;7.840;2024-01-15T10:44:25;5.00;56.30
21807;DHT22;11065;50.786;7.840;2024-01-15T10:46:54;5.00;56.20
21807;DHT22;11065;50.786;7.840;2024-01-15T10:49:23;5.00;56.20
21807;DHT22;11065;50.786;7.840;2024-01-15T10:51:58;5.10;56.10
21807;DHT22;11065;50.786;7.840;2024-01-15T10:54:29;5.10;56.10
21807;DHT22;11065;50.786;7.840;2024-01-15T10:56:57;5.10;56.20
21807;DHT22;11065;50.786;7.840;2024-01-15T10:59:25;5.10;56.20
21807;DHT22;11065;50.786;7.840;2024-01-15T11:01:53;5.10;56.20
21807;DHT22;11065;50.786;7.840;2024-01-15T11:04:23;5.10;56.20
21807;DHT22;11065;50.786;7.840;2024-01-15T11:06:54;5.10;56.20
21807;DHT22;11065;50.786;7.840;2024-01-15T11:09:24;5.10;56.20
21807;DHT22;11065;50.786;7.840;2024-01-15T11:12:07;5.10;56.20
21807;DHT22;11065;50.786;7.840;2024-01-15T11:14:38;5.10;56.20
21807;DHT22;11065;50.786;7.840;2024-01-15T11:17:06;5.10;56.20
21807;DHT22;11065;50.786;7.840;2024-01-15T11:19:38;5.20;56.20
21807;DHT22;11065;50.786;7.840;2024-01-15T11:22:08;5.20;56.30
21807;DHT22;11065;50.786;7.840;2024-01-15T11:24:38;5.20;56.40
21807;DHT22;11065;50.786;7.840;2024-01-15T11:27:08;5.20;56.30
21807;DHT22;11065;50.786;7.840;2024-01-15T11:29:37;5.20;56.30
21807;DHT22;11065;50.786;7.840;2024-01-15T11:32:06;5.20;56.30
21807;DHT22;11065;50.786;7.840;2024-01-15T11:34:53;5.30;56.40
21807;DHT22;11065;50.786;7.840;2024-01-15T11:37:25;5.30;56.50
21807;DHT22;11065;50.786;7.840;2024-01-15T11:39:54;5.30;56.80
21807;DHT22;11065;50.786;7.840;2024-01-15T11:42:23;5.30;56.30
21807;DHT22;11065;50.786;7.840;2024-01-15T11:44:51;5.40;56.40
21807;DHT22;11065;50.786;7.840;2024-01-15T11:47:51;5.30;56.30
21807;DHT22;11065;50.786;7.840;2024-01-15T11:50:27;5.40;56.30
21807;DHT22;11065;50.786;7.840;2024-01-15T11:53:00;5.40;56.20
21807;DHT22;11065;50.786;7.840;2024-01-15T11:55:34;5.40;56.10
21807;DHT22;11065;50.786;7.840;2024-01-15T11:58:08;5.40;56.10
21807;DHT22;11065;50.786;7.840;2024-01-15T12:00:39;5.40;56.00
21807;DHT22;11065;50.786;7.840;2024-01-15T12:03:09;5.40;56.00
21807;DHT22;11065;50.786;7.840;2024-01-15T12:05:37;5.40;56.10
21807;DHT22;11065;50.786;7.840;2024-01-15T12:08:06;5.40;56.20
21807;DHT22;11065;50.786;7.840;2024-01-15T12:10:38;5.40;56.20
21807;DHT22;11065;50.786;7.840;2024-01-15T12:13:12;5.40;56.30
21807;DHT22;11065;50.786;7.840;2024-01-15T12:15:42;5.40;56.20
21807;DHT22;11065;50.786;7.840;2024-01-15T12:18:11;5.40;56.10
21807;DHT22;11065;50.786;7.840;2024-01-15T12:20:41;5.50;56.10
21807;DHT22;11065;50.786;7.840;2024-01-15T12:23:10;5.40;56.10
21807;DHT22;11065;50.786;7.840;2024-01-15T12:25:40;5.40;56.00
21807;DHT22;11065;50.786;7.840;2024-01-15T12:28:08;5.50;56.10
21807;DHT22;11065;50.786;7.840;2024-01-15T12:30:39;5.50;56.10
21807;DHT22;11065;50.786;7.840;2024-01-15T12:33:07;5.50;56.10
21807;DHT22;11065;50.786;7.840;2024-01-15T12:35:37;5.50;56.00
21807;DHT22;11065;50.786;7.840;2024-01-15T12:38:05;5.50;56.00
21807;DHT22;11065;50.786;7.840;2024-01-15T12:40:33;5.50;56.00
21807;DHT22;11065;50.786;7.840;2024-01-15T12:43:05;5.50;55.90
21807;DHT22;11065;50.786;7.840;2024-01-15T12:45:33;5.50;55.80
21807;DHT22;11065;50.786;7.840;2024-01-15T12:48:04;5.50;55.90
21807;DHT22;11065;50.786;7.840;2024-01-15T12:50:33;5.50;55.80
21807;DHT22;11065;50.786;7.840;2024-01-15T12:53:02;5.50;55.80
21807;DHT22;11065;50.786;7.840;2024-01-15T12:55:30;5.50;55.80
21807;DHT22;11065;50.786;7.840;2024-01-15T12:57:58;5.50;55.60
21807;DHT22;11065;50.786;7.840;2024-01-15T13:00:26;5.50;55.50
21807;DHT22;11065;50.786;7.840;2024-01-15T13:02:54;5.50;55.50
21807;DHT22;11065;50.786;7.840;2024-01-15T13:05:26;5.50;55.50
21807;DHT22;11065;50.786;7.840;2024-01-15T13:07:55;5.50;55.60
21807;DHT22;11065;50.786;7.840;2024-01-15T13:10:23;5.40;55.60
21807;DHT22;11065;50.786;7.840;2024-01-15T13:12:52;5.40;55.60
21807;DHT22;11065;50.786;7.840;2024-01-15T13:15:20;5.40;55.70
21807;DHT22;11065;50.786;7.840;2024-01-15T13:17:48;5.40;55.70
21807;DHT22;11065;50.786;7.840;2024-01-15T13:20:17;5.50;55.70
21807;DHT22;11065;50.786;7.840;2024-01-15T13:22:46;5.50;55.70
21807;DHT22;11065;50.786;7.840;2024-01-15T13:25:14;5.50;55.70
21807;DHT22;11065;50.786;7.840;2024-01-15T13:27:42;5.50;55.60
21807;DHT22;11065;50.786;7.840;2024-01-15T13:30:11;5.40;55.50
21807;DHT22;11065;50.786;7.840;2024-01-15T13:32:40;5.50;55.50
21807;DHT22;11065;50.786;7.840;2024-01-15T13:35:08;5.40;55.50
21807;DHT22;11065;50.786;7.840;2024-01-15T13:37:39;5.50;55.50
21807;DHT22;11065;50.786;7.840;2024-01-15T13:40:10;5.50;55.40
21807;DHT22;11065;50.786;7.840;2024-01-15T13:42:44;5.40;55.40
21807;DHT22;11065;50.786;7.840;2024-01-15T13:45:13;5.40;55.40
21807;DHT22;11065;50.786;7.840;2024-01-15T13:47:42;5.50;55.40
21807;DHT22;11065;50.786;7.840;2024-01-15T13:50:10;5.50;55.40
21807;DHT22;11065;50.786;7.840;2024-01-15T13:52:38;5.40;55.40
21807;DHT22;11065;50.786;7.840;2024-01-15T13:55:06;5.40;55.40
21807;DHT22;11065;50.786;7.840;2024-01-15T13:57:37;5.40;55.40
21807;DHT22;11065;50.786;7.840;2024-01-15T14:00:06;5.40;55.50
21807;DHT22;11065;50.786;7.840;2024-01-15T14:02:38;5.30;55.60
21807;DHT22;11065;50.786;7.840;2024-01-15T14:05:06;5.30;55.70
21807;DHT22;11065;50.786;7.840;2024-01-15T14:07:35;5.30;55.70
21807;DHT22;11065;50.786;7.840;2024-01-15T14:10:04;5.30;55.80
21807;DHT22;11065;50.786;7.840;2024-01-15T14:12:32;5.30;55.80
21807;DHT22;11065;50.786;7.840;2024-01-15T14:15:02;5.30;55.80
21807;DHT22;11065;50.786;7.840;2024-01-15T14:17:31;5.40;55.90
21807;DHT22;11065;50.786;7.840;2024-01-15T14:20:00;5.30;56.10
21807;DHT22;11065;50.786;7.840;2024-01-15T14:22:28;5.40;56.00
21807;DHT22;11065;50.786;7.840;2024-01-15T14:24:56;5.40;55.90
21807;DHT22;11065;50.786;7.840;2024-01-15T14:27:24;5.40;56.00
21807;DHT22;11065;50.786;7.840;2024-01-15T14:29:52;5.40;56.00
21807;DHT22;11065;50.786;7.840;2024-01-15T14:32:21;5.40;56.00
21807;DHT22;11065;50.786;7.840;2024-01-15T14:34:49;5.40;55.90
21807;DHT22;11065;50.786;7.840;2024-01-15T14:37:17;5.40;55.90
21807;DHT22;11065;50.786;7.840;2024-01-15T14:39:45;5.40;55.80
21807;DHT22;11065;50.786;7.840;2024-01-15T14:42:13;5.30;55.70
21807;DHT22;11065;50.786;7.840;2024-01-15T14:44:42;5.30;55.70
21807;DHT22;11065;50.786;7.840;2024-01-15T14:47:10;5.30;55.70
21807;DHT22;11065;50.786;7.840;2024-01-15T14:49:39;5.40;55.80
21807;DHT22;11065;50.786;7.840;2024-01-15T14:52:07;5.30;55.70
21807;DHT22;11065;50.786;7.840;2024-01-15T14:54:35;5.30;55.70
21807;DHT22;11065;50.786;7.840;2024-01-15T14:57:03;5.30;55.70
21807;DHT22;11065;50.786;7.840;2024-01-15T14:59:31;5.30;55.70
21807;DHT22;11065;50.786;7.840;2024-01-15T15:01:59;5.30;55.80
21807;DHT22;11065;50.786;7.840;2024-01-15T15:04:27;5.30;55.80
21807;DHT22;11065;50.786;7.840;2024-01-15T15:06:58;5.30;55.70
21807;DHT22;11065;50.786;7.840;2024-01-15T15:09:26;5.30;55.70
21807;DHT22;11065;50.786;7.840;2024-01-15T15:11:54;5.30;55.70
21807;DHT22;11065;50.786;7.840;2024-01-15T15:14:22;5.30;55.70
21807;DHT22;11065;50.786;7.840;2024-01-15T15:16:50;5.30;55.80
21807;DHT22;11065;50.786;7.840;2024-01-15T15:19:19;5.20;55.80
21807;DHT22;11065;50.786;7.840;2024-01-15T15:21:48;5.20;55.80
21807;DHT22;11065;50.786;7.840;2024-01-15T15:24:17;5.20;55.80
21807;DHT22;11065;50.786;7.840;2024-01-15T15:26:45;5.20;55.90
21807;DHT22;11065;50.786;7.840;2024-01-15T15:29:13;5.20;55.90
21807;DHT22;11065;50.786;7.840;2024-01-15T15:31:43;5.10;55.80
21807;DHT22;11065;50.786;7.840;2024-01-15T15:34:11;5.10;55.80
21807;DHT22;11065;50.786;7.840;2024-01-15T15:36:39;5.10;55.80
21807;DHT22;11065;50.786;7.840;2024-01-15T15:39:07;5.10;55.80
21807;DHT22;11065;50.786;7.840;2024-01-15T15:41:37;5.10;55.80
21807;DHT22;11065;50.786;7.840;2024-01-15T15:44:05;5.10;55.90
21807;DHT22;11065;50.786;7.840;2024-01-15T15:46:33;5.10;55.90
21807;DHT22;11065;50.786;7.840;2024-01-15T15:49:01;5.00;55.90
21807;DHT22;11065;50.786;7.840;2024-01-15T15:51:33;5.00;55.90
21807;DHT22;11065;50.786;7.840;2024-01-15T15:54:02;5.00;55.80